Time;durP1;ratioP1;P1;durP2;ratioP2;P2;SDS_P1;SDS_P2;PMS_P1;PMS_P2;Temp;Humidity;BMP_temperature;BMP_pressure;BME280_temperature;BME280_humidity;BME280_pressure;Samples;Min_cycle;Max_cycle;Signal;HPM_P1;HPM_P2
2021/12/01 00:02:27;;;;;;;0.40;0.40;;;;;;;4.23;79.13;96148.25;4976926;28;20416;-77
2021/12/01 00:04:54;;;;;;;0.40;0.40;;;;;;;4.24;79.27;96156.78;4977200;28;20055;-75
2021/12/01 00:07:22;;;;;;;1.63;0.88;;;;;;;4.24;79.16;96136.13;4977081;28;20070;-76
2021/12/01 00:09:51;;;;;;;0.63;0.63;;;;;;;4.25;79.42;96119.69;4976770;28;20051;-76
2021/12/01 00:12:19;;;;;;;0.43;0.40;;;;;;;4.27;79.33;96123.75;4975901;28;20050;-78
2021/12/01 00:14:47;;;;;;;0.55;0.50;;;;;;;4.28;79.45;96130.50;4975883;28;20058;-76
2021/12/01 00:17:15;;;;;;;0.40;0.40;;;;;;;4.29;79.01;96131.34;4976994;28;20054;-76
2021/12/01 00:19:42;;;;;;;0.55;0.50;;;;;;;4.30;79.03;96115.66;4977142;28;20058;-75
2021/12/01 00:22:10;;;;;;;0.57;0.57;;;;;;;4.29;79.36;96111.50;4977100;28;20059;-77
2021/12/01 00:24:37;;;;;;;2.33;0.90;;;;;;;4.29;79.50;96108.09;4976317;28;20510;-76
2021/12/01 00:27:05;;;;;;;2.30;0.73;;;;;;;4.30;79.25;96096.78;4976719;28;20058;-76
2021/12/01 00:29:32;;;;;;;1.20;0.47;;;;;;;4.31;79.18;96103.59;4977223;28;20069;-75
2021/12/01 00:32:01;;;;;;;0.63;0.63;;;;;;;4.32;79.06;96090.50;4976928;28;20070;-75
2021/12/01 00:34:29;;;;;;;1.52;0.43;;;;;;;4.35;79.27;96094.53;4976999;28;20058;-75
2021/12/01 00:36:57;;;;;;;1.17;0.65;;;;;;;4.36;78.84;96088.44;4976400;28;20062;-74
2021/12/01 00:39:24;;;;;;;0.52;0.52;;;;;;;4.37;79.03;96082.28;4977093;28;20054;-75
2021/12/01 00:41:52;;;;;;;0.75;0.75;;;;;;;4.38;79.26;96070.22;4976705;28;20051;-76
2021/12/01 00:44:20;;;;;;;0.20;0.20;;;;;;;4.38;78.57;96078.75;4976579;28;20050;-76
2021/12/01 00:46:55;;;;;;;0.50;0.50;;;;;;;4.39;78.90;96090.69;4976005;28;20051;-76
2021/12/01 00:49:24;;;;;;;0.65;0.30;;;;;;;4.40;78.77;96076.03;4976479;28;20062;-74
2021/12/01 00:51:51;;;;;;;0.40;0.40;;;;;;;4.39;78.53;96072.63;4975867;28;20047;-76
2021/12/01 00:54:19;;;;;;;0.40;0.40;;;;;;;4.41;78.65;96082.81;4975968;28;20055;-75
2021/12/01 00:56:47;;;;;;;0.50;0.38;;;;;;;4.42;78.93;96072.31;4975936;28;20055;-78
2021/12/01 00:59:15;;;;;;;0.30;0.30;;;;;;;4.44;78.66;96066.97;4975923;28;20051;-75
2021/12/01 01:01:42;;;;;;;0.50;0.40;;;;;;;4.46;78.42;96071.06;4975489;28;20046;-76
2021/12/01 01:04:10;;;;;;;0.52;0.30;;;;;;;4.47;78.40;96062.31;4975458;28;20047;-76
2021/12/01 01:06:39;;;;;;;0.55;0.52;;;;;;;4.49;78.43;96064.75;4975612;28;20516;-75
2021/12/01 01:09:08;;;;;;;0.45;0.30;;;;;;;4.50;78.07;96063.78;4976278;28;20423;-76
2021/12/01 01:17:09;;;;;;;1.00;0.47;;;;;;;4.53;78.07;96046.22;4975095;28;20058;-76
2021/12/01 01:19:38;;;;;;;0.20;0.20;;;;;;;4.52;78.22;96049.75;4975230;28;20418;-76
2021/12/01 01:22:08;;;;;;;0.20;0.20;;;;;;;4.52;77.58;96044.56;4975147;28;20520;-75
2021/12/01 01:24:36;;;;;;;0.45;0.30;;;;;;;4.53;77.90;96043.63;4977480;28;20050;-75
2021/12/01 01:27:04;;;;;;;0.20;0.20;;;;;;;4.54;77.56;96034.91;4976286;28;20062;-76
2021/12/01 01:29:34;;;;;;;0.40;0.40;;;;;;;4.57;77.82;96035.53;4976690;28;20055;-74
2021/12/01 01:32:02;;;;;;;0.32;0.32;;;;;;;4.56;77.60;96034.75;4976709;28;20057;-75
2021/12/01 01:34:30;;;;;;;0.20;0.20;;;;;;;4.57;77.18;96030.38;4977959;28;20050;-76
2021/12/01 01:36:57;;;;;;;0.30;0.30;;;;;;;4.57;77.11;96035.53;4977560;28;20055;-77
2021/12/01 01:39:26;;;;;;;0.80;0.50;;;;;;;4.56;77.33;96029.56;4976829;28;20078;-76
2021/12/01 01:41:54;;;;;;;0.30;0.30;;;;;;;4.57;77.94;96025.22;4976797;28;20424;-77
2021/12/01 01:44:23;;;;;;;0.32;0.30;;;;;;;4.59;77.75;96023.28;4975660;28;20062;-77
2021/12/01 01:46:50;;;;;;;0.28;0.20;;;;;;;4.58;77.37;96017.31;4975348;28;20496;-75
2021/12/01 01:49:19;;;;;;;0.63;0.40;;;;;;;4.58;77.88;96019.09;4975928;28;20054;-77
2021/12/01 01:51:48;;;;;;;0.20;0.20;;;;;;;4.59;77.30;96010.38;4975625;28;20497;-75
2021/12/01 01:54:17;;;;;;;0.20;0.20;;;;;;;4.60;77.69;96012.81;4976381;28;20069;-76
2021/12/01 01:56:45;;;;;;;0.30;0.30;;;;;;;4.61;77.62;96021.34;4976185;28;20061;-76
2021/12/01 01:59:13;;;;;;;0.40;0.40;;;;;;;4.60;77.65;96019.75;4976411;28;20061;-75
2021/12/01 02:01:53;;;;;;;0.75;0.57;;;;;;;4.57;77.84;96017.47;4975812;28;20479;-75
2021/12/01 02:04:22;;;;;;;0.50;0.30;;;;;;;4.58;77.40;96011.34;4975628;28;20496;-74
2021/12/01 02:06:50;;;;;;;0.30;0.30;;;;;;;4.57;77.94;95989.06;4975302;28;20086;-74
2021/12/01 02:09:21;;;;;;;0.77;0.50;;;;;;;4.59;77.84;95987.13;4976027;28;20046;-76
2021/12/01 02:11:52;;;;;;;1.20;0.40;;;;;;;4.57;77.75;95989.06;4975735;28;20531;-74
2021/12/01 02:14:20;;;;;;;0.47;0.47;;;;;;;4.56;77.76;95984.88;4975500;28;20046;-74
2021/12/01 02:16:48;;;;;;;0.45;0.30;;;;;;;4.57;77.60;95978.72;4975658;28;20055;-74
2021/12/01 02:19:16;;;;;;;0.70;0.50;;;;;;;4.55;77.53;95973.72;4975934;28;20062;-75
2021/12/01 02:21:46;;;;;;;0.30;0.30;;;;;;;4.56;77.87;95977.13;4975388;28;20050;-75
2021/12/01 02:24:15;;;;;;;0.30;0.30;;;;;;;4.56;77.38;95971.94;4975614;28;20058;-74
2021/12/01 02:26:45;;;;;;;0.30;0.30;;;;;;;4.58;77.47;95954.53;4975031;28;20424;-76
2021/12/01 02:29:15;;;;;;;0.57;0.20;;;;;;;4.58;77.47;95955.31;4974770;28;20061;-73
2021/12/01 02:31:43;;;;;;;0.88;0.28;;;;;;;4.59;77.33;95946.63;4975061;28;20054;-74
2021/12/01 02:34:14;;;;;;;0.20;0.20;;;;;;;4.59;77.66;95956.94;4975128;28;20248;-75
2021/12/01 02:36:43;;;;;;;0.30;0.25;;;;;;;4.61;77.36;95956.78;4975079;28;20057;-75
2021/12/01 02:39:15;;;;;;;0.32;0.32;;;;;;;4.61;77.69;95947.25;4975409;28;20047;-75
2021/12/01 02:41:44;;;;;;;0.35;0.30;;;;;;;4.62;77.24;95948.06;4974863;28;20051;-78
2021/12/01 02:44:16;;;;;;;1.35;0.30;;;;;;;4.62;77.94;95945.47;4974624;28;20107;-73
2021/12/01 02:46:44;;;;;;;0.20;0.20;;;;;;;4.63;77.63;95936.75;4975523;28;20046;-75
2021/12/01 02:49:12;;;;;;;0.75;0.40;;;;;;;4.64;77.10;95935.81;4975122;28;20077;-74
2021/12/01 02:51:40;;;;;;;0.22;0.20;;;;;;;4.65;77.37;95935.63;4974919;28;20137;-75
2021/12/01 02:54:08;;;;;;;0.50;0.35;;;;;;;4.64;77.32;95928.84;4974548;28;20051;-75
2021/12/01 02:56:37;;;;;;;1.77;0.43;;;;;;;4.64;77.68;95926.28;4974576;28;20054;-74
2021/12/01 02:59:07;;;;;;;0.40;0.35;;;;;;;4.66;77.21;95929.50;4974331;28;20050;-75
2021/12/01 03:01:34;;;;;;;0.20;0.20;;;;;;;4.67;77.35;95933.69;4974447;28;20086;-76
2021/12/01 03:04:02;;;;;;;1.55;0.98;;;;;;;4.68;77.32;95926.72;4972219;28;20547;-76
2021/12/01 03:06:33;;;;;;;0.85;0.20;;;;;;;4.68;77.21;95927.56;4972503;28;20051;-78
2021/12/01 03:09:01;;;;;;;0.25;0.20;;;;;;;4.69;77.39;95912.88;4973127;28;20059;-74
2021/12/01 03:11:28;;;;;;;0.40;0.30;;;;;;;4.71;77.17;95910.94;4972007;28;20508;-75
2021/12/01 03:13:57;;;;;;;0.45;0.45;;;;;;;4.73;77.33;95904.63;4973155;28;20069;-76
2021/12/01 03:16:25;;;;;;;0.20;0.20;;;;;;;4.76;76.96;95906.06;4973576;28;20061;-77
2021/12/01 03:18:53;;;;;;;0.55;0.40;;;;;;;4.79;77.16;95897.19;4974222;28;20057;-76
2021/12/01 03:21:20;;;;;;;1.27;0.38;;;;;;;4.80;76.86;95901.41;4972500;28;20046;-75
2021/12/01 03:23:48;;;;;;;0.20;0.20;;;;;;;4.82;76.77;95899.47;4972198;28;20134;-76
2021/12/01 03:26:15;;;;;;;0.30;0.30;;;;;;;4.82;77.25;95892.50;4971979;28;20071;-76
2021/12/01 03:28:43;;;;;;;0.75;0.50;;;;;;;4.82;76.89;95889.13;4972829;28;20058;-75
2021/12/01 03:31:12;;;;;;;0.20;0.15;;;;;;;4.81;77.09;95882.31;4972460;28;20685;-75
2021/12/01 03:33:40;;;;;;;2.03;0.10;;;;;;;4.83;77.10;95876.06;4972869;28;20047;-76
2021/12/01 03:36:07;;;;;;;0.20;0.20;;;;;;;4.83;76.56;95865.72;4976669;28;20058;-76
2021/12/01 03:38:35;;;;;;;0.55;0.10;;;;;;;4.86;76.76;95865.38;4978460;28;20078;-74
2021/12/01 03:41:02;;;;;;;0.35;0.35;;;;;;;4.85;76.95;95873.28;4978379;28;20062;-77
2021/12/01 03:43:30;;;;;;;1.58;0.30;;;;;;;4.87;76.72;95871.34;4978314;28;20051;-75
2021/12/01 03:45:58;;;;;;;0.40;0.20;;;;;;;4.88;76.42;95863.44;5045896;23;20053;-80
2021/12/01 03:48:27;;;;;;;0.50;0.30;;;;;;;4.89;76.47;95853.91;5040624;28;20084;-80
2021/12/01 03:50:55;;;;;;;0.85;0.20;;;;;;;4.91;75.86;95864.88;5040215;28;20053;-80
2021/12/01 03:53:24;;;;;;;0.25;0.22;;;;;;;4.90;75.85;95851.16;5039453;28;20121;-80
2021/12/01 03:55:53;;;;;;;2.03;0.28;;;;;;;4.91;75.73;95849.38;5039700;28;20052;-80
2021/12/01 03:58:20;;;;;;;0.20;0.20;;;;;;;4.92;75.35;95848.41;5039407;28;20418;-81
2021/12/01 04:00:48;;;;;;;1.40;0.30;;;;;;;4.93;75.96;95835.31;5045143;28;20037;-81
2021/12/01 04:03:16;;;;;;;0.90;0.30;;;;;;;4.93;76.60;95835.31;5041600;28;20045;-81
2021/12/01 04:05:46;;;;;;;0.28;0.28;;;;;;;4.92;76.31;95833.72;5038812;28;20046;-81
2021/12/01 04:08:13;;;;;;;2.20;0.60;;;;;;;4.93;76.12;95824.97;5039264;28;20639;-81
2021/12/01 04:10:41;;;;;;;0.10;0.10;;;;;;;4.96;75.92;95823.84;5039122;28;20056;-81
2021/12/01 04:13:09;;;;;;;0.95;0.50;;;;;;;4.98;76.12;95821.09;5039277;28;20129;-81
2021/12/01 04:15:37;;;;;;;1.13;0.52;;;;;;;4.99;76.38;95813.19;5038970;28;20052;-81
2021/12/01 04:18:05;;;;;;;0.45;0.45;;;;;;;5.00;76.32;95813.97;5038496;28;20148;-81
2021/12/01 04:20:33;;;;;;;2.38;0.50;;;;;;;4.99;76.31;95812.38;5039284;28;20050;-82
2021/12/01 04:23:02;;;;;;;1.02;0.30;;;;;;;4.99;76.45;95814.97;5039027;28;20045;-81
2021/12/01 04:25:30;;;;;;;0.17;0.17;;;;;;;5.01;76.34;95813.00;5038628;28;20059;-81
2021/12/01 04:27:58;;;;;;;0.50;0.40;;;;;;;5.00;75.90;95812.19;5038771;28;20053;-81
2021/12/01 04:30:26;;;;;;;0.73;0.10;;;;;;;5.02;76.24;95812.84;5039874;28;20049;-81
2021/12/01 04:32:56;;;;;;;2.50;0.75;;;;;;;5.01;76.38;95805.25;5039315;28;20046;-81
2021/12/01 04:35:26;;;;;;;0.30;0.30;;;;;;;5.00;76.11;95795.88;5040088;28;20085;-81
2021/12/01 04:37:55;;;;;;;0.90;0.40;;;;;;;5.00;76.29;95801.06;5040165;28;20047;-81
2021/12/01 04:40:24;;;;;;;0.30;0.30;;;;;;;4.99;76.40;95791.72;5039047;28;20057;-82
2021/12/01 04:42:52;;;;;;;0.30;0.30;;;;;;;4.99;76.42;95789.13;5039039;28;20053;-82
2021/12/01 04:45:21;;;;;;;0.32;0.32;;;;;;;4.99;76.41;95789.13;5038070;28;20515;-81
2021/12/01 04:47:53;;;;;;;0.30;0.30;;;;;;;4.97;76.41;95783.31;5038483;28;20052;-81
2021/12/01 04:50:22;;;;;;;0.82;0.50;;;;;;;4.99;76.48;95777.00;5039189;28;20108;-81
2021/12/01 04:52:51;;;;;;;1.33;1.23;;;;;;;4.99;76.30;95771.03;5038008;28;20055;-81
2021/12/01 04:55:19;;;;;;;1.10;0.70;;;;;;;5.00;76.49;95762.28;5038454;28;20415;-80
2021/12/01 04:57:49;;;;;;;0.47;0.47;;;;;;;4.99;76.47;95761.50;5038288;28;20076;-81
2021/12/01 05:00:19;;;;;;;0.80;0.63;;;;;;;5.02;76.53;95761.13;5038900;28;20133;-81
2021/12/01 05:02:47;;;;;;;1.48;0.55;;;;;;;5.02;76.45;95755.16;5038654;28;20045;-81
2021/12/01 05:05:17;;;;;;;1.77;0.98;;;;;;;5.02;76.76;95750.81;5038656;28;20084;-81
2021/12/01 05:07:44;;;;;;;0.88;0.50;;;;;;;5.05;76.59;95739.31;5038534;28;20049;-81
2021/12/01 05:10:13;;;;;;;1.20;0.88;;;;;;;5.07;76.60;95742.53;5038768;28;20161;-81
2021/12/01 05:12:40;;;;;;;0.40;0.40;;;;;;;5.08;76.26;95733.81;5039315;28;20056;-81
2021/12/01 05:15:10;;;;;;;1.08;0.50;;;;;;;5.08;76.10;95726.88;5039580;28;20076;-81
2021/12/01 05:17:39;;;;;;;0.82;0.70;;;;;;;5.12;76.08;95717.81;5040597;28;20050;-81
2021/12/01 05:20:11;;;;;;;0.45;0.45;;;;;;;5.13;76.36;95713.44;5040285;28;20053;-81
2021/12/01 05:22:39;;;;;;;;;;;;;;;5.18;76.57;95718.91;5041474;28;20045;-81
2021/12/01 05:25:07;;;;;;;0.75;0.57;;;;;;;5.16;75.96;95708.75;5041219;28;19932;-82
2021/12/01 05:27:35;;;;;;;0.80;0.45;;;;;;;5.16;76.52;95701.00;5040400;28;20054;-81
2021/12/01 05:30:04;;;;;;;2.25;0.68;;;;;;;5.19;75.80;95697.25;5039636;28;20048;-81
2021/12/01 05:32:33;;;;;;;0.70;0.70;;;;;;;5.19;75.94;95691.28;5039884;28;20446;-81
2021/12/01 05:35:01;;;;;;;0.68;0.50;;;;;;;5.19;76.48;95686.13;5039416;28;20083;-81
2021/12/01 05:37:29;;;;;;;0.73;0.38;;;;;;;5.20;76.54;95687.72;5039737;28;20060;-81
2021/12/01 05:39:56;;;;;;;0.65;0.60;;;;;;;5.20;76.01;95678.16;5038879;28;20056;-81
2021/12/01 05:42:27;;;;;;;0.50;0.50;;;;;;;5.22;76.37;95689.16;5039906;28;20055;-81
2021/12/01 05:44:55;;;;;;;1.52;0.57;;;;;;;5.23;76.19;95685.59;5022044;28;20057;-81
2021/12/01 05:47:24;;;;;;;0.45;0.35;;;;;;;5.24;76.38;95676.84;5040370;28;20172;-81
2021/12/01 05:49:53;;;;;;;0.82;0.55;;;;;;;5.22;76.63;95673.63;5038503;28;20113;-81
2021/12/01 05:52:20;;;;;;;26.95;12.48;;;;;;;5.23;76.41;95654.56;5027929;28;20060;-81
2021/12/01 05:54:51;;;;;;;28.45;16.52;;;;;;;5.24;76.71;95663.13;5030731;28;20048;-81
2021/12/01 05:57:18;;;;;;;3.58;2.47;;;;;;;5.24;76.67;95656.16;5044117;28;20045;-81
2021/12/01 05:59:46;;;;;;;2.78;1.40;;;;;;;5.25;76.52;95655.19;5031213;28;20508;-81
2021/12/01 06:02:14;;;;;;;0.95;0.82;;;;;;;5.27;76.75;95661.00;5020523;28;20498;-81
2021/12/01 06:04:41;;;;;;;0.68;0.57;;;;;;;5.27;76.52;95661.00;5017114;28;20136;-81
2021/12/01 06:07:10;;;;;;;0.55;0.50;;;;;;;5.26;76.32;95654.22;5018366;28;20423;-81
2021/12/01 06:09:42;;;;;;;1.45;0.60;;;;;;;5.26;76.42;95649.03;5042566;28;20049;-81
2021/12/01 06:12:12;;;;;;;2.50;0.32;;;;;;;5.29;75.64;95659.06;5036683;28;20064;-81
2021/12/01 06:14:41;;;;;;;0.45;0.38;;;;;;;5.31;75.77;95644.19;5037060;28;20046;-81
2021/12/01 06:17:10;;;;;;;0.32;0.28;;;;;;;5.33;75.99;95638.81;5033926;28;20049;-82
2021/12/01 06:19:44;;;;;;;0.73;0.30;;;;;;;5.33;75.97;95634.44;5036896;28;20056;-82
2021/12/01 06:22:22;;;;;;;0.40;0.40;;;;;;;5.36;75.85;95618.59;5035038;28;20064;-79
2021/12/01 06:24:50;;;;;;;0.70;0.43;;;;;;;5.38;76.00;95615.84;5030665;28;20046;-81
2021/12/01 06:27:18;;;;;;;0.73;0.50;;;;;;;5.41;75.91;95614.69;5025556;28;20049;-81
2021/12/01 06:29:45;;;;;;;0.20;0.20;;;;;;;5.40;75.79;95613.06;5027041;28;20049;-81
2021/12/01 06:32:13;;;;;;;1.92;0.95;;;;;;;5.41;76.36;95609.53;5016955;28;20057;-81
2021/12/01 06:34:40;;;;;;;0.80;0.43;;;;;;;5.39;75.75;95591.59;5015345;28;20045;-80
2021/12/01 06:37:08;;;;;;;0.35;0.35;;;;;;;5.38;75.83;95590.00;5034549;28;20060;-81
2021/12/01 06:39:37;;;;;;;1.92;1.00;;;;;;;5.37;75.70;95581.41;5033526;28;20057;-81
2021/12/01 06:42:05;;;;;;;0.30;0.30;;;;;;;5.40;76.20;95574.28;5032162;28;20053;-81
2021/12/01 06:44:33;;;;;;;0.60;0.52;;;;;;;5.40;75.97;95566.50;5034957;28;20046;-81
2021/12/01 06:47:03;;;;;;;0.30;0.30;;;;;;;5.40;75.98;95563.94;5034098;28;20049;-81
2021/12/01 06:49:30;;;;;;;0.50;0.40;;;;;;;5.41;75.99;95563.75;5029396;28;20050;-81
2021/12/01 06:51:58;;;;;;;0.40;0.40;;;;;;;5.38;75.48;95548.59;5016269;28;20423;-80
2021/12/01 06:54:25;;;;;;;1.00;0.40;;;;;;;5.39;75.05;95537.28;5015885;28;20053;-81
2021/12/01 06:56:55;;;;;;;0.40;0.40;;;;;;;5.40;75.23;95535.47;5015647;28;20523;-82
2021/12/01 06:59:22;;;;;;;1.13;0.52;;;;;;;5.40;75.49;95538.06;5015036;28;20046;-82
2021/12/01 07:01:50;;;;;;;0.60;0.40;;;;;;;5.39;75.79;95544.22;5015054;28;20060;-80
2021/12/01 07:04:18;;;;;;;0.98;0.90;;;;;;;5.39;76.00;95539.84;5014906;28;20115;-77
2021/12/01 07:06:45;;;;;;;2.63;0.90;;;;;;;5.40;75.90;95551.00;5012255;28;20428;-78
2021/12/01 07:09:20;;;;;;;;;;;;;;;5.40;75.86;95551.81;5015656;28;20427;-77
2021/12/01 07:11:48;;;;;;;0.65;0.63;;;;;;;5.37;75.59;95540.03;5016448;28;19933;-77
2021/12/01 07:14:17;;;;;;;0.93;0.63;;;;;;;5.37;75.45;95534.06;5016524;28;20147;-77
2021/12/01 07:16:44;;;;;;;0.70;0.70;;;;;;;5.37;75.54;95539.22;5016009;28;20054;-77
2021/12/01 07:19:12;;;;;;;1.45;0.68;;;;;;;5.39;76.27;95541.66;5017896;28;20128;-79
2021/12/01 07:21:40;;;;;;;0.60;0.60;;;;;;;5.40;76.21;95538.06;5016563;28;20057;-78
2021/12/01 07:24:08;;;;;;;0.40;0.40;;;;;;;5.40;75.52;95535.47;5017743;28;20045;-78
2021/12/01 07:26:35;;;;;;;1.80;0.52;;;;;;;5.42;76.08;95533.53;5017040;28;20050;-78
2021/12/01 07:29:03;;;;;;;1.92;0.40;;;;;;;5.44;75.59;95534.16;5017109;28;20046;-77
2021/12/01 07:31:32;;;;;;;1.10;0.60;;;;;;;5.44;75.60;95534.94;5016977;28;20534;-78
2021/12/01 07:34:00;;;;;;;0.68;0.68;;;;;;;5.44;75.95;95521.22;5017518;28;20487;-78
2021/12/01 07:36:27;;;;;;;1.42;0.40;;;;;;;5.46;76.13;95520.06;5017125;28;20050;-77
2021/12/01 07:38:56;;;;;;;0.50;0.30;;;;;;;5.47;75.88;95505.38;5017113;28;20086;-77
2021/12/01 07:41:24;;;;;;;0.93;0.70;;;;;;;5.48;75.85;95506.97;5019063;28;20053;-78
2021/12/01 07:43:51;;;;;;;0.63;0.40;;;;;;;5.48;75.95;95506.97;5036260;28;20065;-77
2021/12/01 07:46:19;;;;;;;0.95;0.32;;;;;;;5.48;75.75;95504.38;5055529;28;20061;-78
2021/12/01 07:48:48;;;;;;;0.30;0.30;;;;;;;5.49;75.78;95493.06;5058947;28;20088;-79
2021/12/01 07:51:15;;;;;;;0.93;0.65;;;;;;;5.50;75.09;95479.94;5059481;28;20046;-77
2021/12/01 07:53:43;;;;;;;0.20;0.20;;;;;;;5.53;74.68;95482.19;5043008;28;20059;-78
2021/12/01 07:56:12;;;;;;;0.93;0.50;;;;;;;5.58;75.29;95479.84;5040219;28;20046;-78
2021/12/01 07:58:39;;;;;;;1.70;0.82;;;;;;;5.60;75.71;95466.75;5039491;28;20423;-78
2021/12/01 08:01:07;;;;;;;1.00;0.40;;;;;;;5.62;75.17;95457.03;5037970;28;20053;-79
2021/12/01 08:03:35;;;;;;;1.60;0.55;;;;;;;5.65;75.81;95456.66;5027659;28;20547;-78
2021/12/01 08:06:04;;;;;;;1.40;0.50;;;;;;;5.67;75.35;95456.50;5016496;28;20050;-78
2021/12/01 08:08:31;;;;;;;0.90;0.40;;;;;;;5.70;75.70;95453.53;5016519;28;20056;-76
2021/12/01 08:10:59;;;;;;;1.00;0.40;;;;;;;5.71;74.64;95455.94;5017863;28;20061;-77
2021/12/01 08:13:26;;;;;;;0.30;0.30;;;;;;;5.76;74.78;95447.66;5016039;28;20057;-77
2021/12/01 08:15:55;;;;;;;0.30;0.30;;;;;;;5.80;74.10;95437.75;5015550;28;20050;-77
2021/12/01 08:18:22;;;;;;;0.80;0.30;;;;;;;5.87;73.86;95433.44;5015693;28;20053;-77
2021/12/01 08:20:50;;;;;;;1.52;0.40;;;;;;;5.90;74.45;95427.91;5015867;28;20054;-77
2021/12/01 08:23:19;;;;;;;0.40;0.38;;;;;;;5.92;74.58;95418.97;5017050;28;20053;-77
2021/12/01 08:25:48;;;;;;;0.82;0.55;;;;;;;5.94;75.11;95424.78;5016860;28;20051;-78
2021/12/01 08:28:16;;;;;;;0.70;0.50;;;;;;;5.94;74.59;95419.63;5016499;28;20050;-78
2021/12/01 08:30:44;;;;;;;0.82;0.55;;;;;;;5.96;74.77;95417.66;5017968;28;20207;-78
2021/12/01 08:33:11;;;;;;;0.32;0.28;;;;;;;5.97;74.43;95410.72;5017534;28;20050;-76
2021/12/01 08:35:40;;;;;;;0.32;0.20;;;;;;;5.99;74.16;95416.47;5016773;28;20595;-77
2021/12/01 08:38:08;;;;;;;0.20;0.20;;;;;;;5.98;74.05;95404.53;5015676;28;20511;-76
2021/12/01 08:40:37;;;;;;;0.73;0.35;;;;;;;5.98;74.39;95402.75;5016471;28;20056;-77
2021/12/01 08:43:04;;;;;;;0.20;0.20;;;;;;;6.03;74.02;95402.19;5015907;28;20424;-77
2021/12/01 08:45:33;;;;;;;0.35;0.30;;;;;;;6.07;74.02;95395.66;5016364;28;20048;-77
2021/12/01 08:48:00;;;;;;;1.20;0.22;;;;;;;6.10;74.21;95402.28;5016315;28;20058;-77
2021/12/01 08:50:28;;;;;;;0.55;0.55;;;;;;;6.09;74.03;95393.69;5016941;28;20065;-78
2021/12/01 08:52:55;;;;;;;2.15;0.77;;;;;;;6.09;74.27;95385.94;5016764;28;20045;-77
2021/12/01 08:55:23;;;;;;;0.40;0.40;;;;;;;6.11;74.26;95378.78;5016123;28;20053;-77
2021/12/01 08:58:08;;;;;;;1.13;0.40;;;;;;;6.13;74.14;95374.22;5016307;28;20060;-78
2021/12/01 09:00:41;;;;;;;0.83;0.40;;;;;;;6.14;74.08;95368.09;5017569;28;20408;-77
2021/12/01 09:03:10;;;;;;;1.83;1.05;;;;;;;6.16;74.05;95373.84;5016278;28;20319;-77
2021/12/01 09:05:37;;;;;;;0.85;0.50;;;;;;;6.18;73.86;95363.31;5016002;28;20045;-77
2021/12/01 09:08:05;;;;;;;0.30;0.30;;;;;;;6.18;74.44;95363.31;5014502;28;20516;-78
2021/12/01 09:10:33;;;;;;;0.88;0.63;;;;;;;6.21;74.25;95351.78;5016531;28;20046;-78
2021/12/01 09:13:01;;;;;;;0.43;0.43;;;;;;;6.23;74.44;95352.41;5015831;28;20068;-78
2021/12/01 09:15:30;;;;;;;0.30;0.30;;;;;;;6.26;74.08;95354.66;5014998;28;20515;-78
2021/12/01 09:17:57;;;;;;;0.68;0.68;;;;;;;6.26;73.60;95339.91;5028475;28;20069;-77
2021/12/01 09:20:25;;;;;;;1.13;1.00;;;;;;;6.22;73.67;95327.50;5034814;28;20049;-77
2021/12/01 09:22:53;;;;;;;3.25;1.27;;;;;;;6.19;73.27;95334.66;5034294;28;20049;-77
2021/12/01 09:25:21;;;;;;;1.17;0.75;;;;;;;6.16;73.25;95335.00;5033872;28;20045;-76
2021/12/01 09:28:09;;;;;;;1.50;0.73;;;;;;;6.14;73.55;95324.06;5032844;28;20060;-77
2021/12/01 09:30:38;;;;;;;1.58;0.80;;;;;;;6.12;73.01;95323.44;5034885;28;20053;-79
2021/12/01 09:33:05;;;;;;;1.65;0.80;;;;;;;6.10;73.84;95314.25;5018564;28;20484;-77
2021/12/01 09:35:33;;;;;;;2.13;1.70;;;;;;;6.08;73.42;95306.69;5014377;28;20463;-77
2021/12/01 09:38:01;;;;;;;2.75;1.70;;;;;;;6.06;73.47;95308.66;5014843;28;20049;-77
2021/12/01 09:40:28;;;;;;;2.90;1.80;;;;;;;6.02;73.85;95297.06;5014908;28;20046;-77
2021/12/01 09:42:56;;;;;;;2.30;1.65;;;;;;;6.02;73.57;95297.06;5028922;28;20045;-77
2021/12/01 09:45:26;;;;;;;1.27;1.13;;;;;;;6.06;73.50;95298.28;5025492;28;20125;-76
2021/12/01 09:47:55;;;;;;;2.10;1.05;;;;;;;6.15;73.44;95299.78;5039674;22;20459;-74
2021/12/01 09:50:23;;;;;;;1.40;1.30;;;;;;;6.23;73.71;95288.50;5018134;28;20049;-75
2021/12/01 09:52:51;;;;;;;1.60;1.13;;;;;;;6.31;73.79;95270.22;5025457;28;20046;-75
2021/12/01 09:55:19;;;;;;;1.20;0.98;;;;;;;6.39;73.78;95277.06;5029971;28;20068;-75
2021/12/01 09:57:58;;;;;;;1.10;1.00;;;;;;;6.49;73.36;95258.59;5027244;28;20606;-75
2021/12/01 10:00:26;;;;;;;1.52;0.90;;;;;;;6.58;73.19;95255.69;5023271;28;20049;-75
2021/12/01 10:02:55;;;;;;;2.33;1.38;;;;;;;6.68;73.26;95250.13;5014317;28;20515;-75
2021/12/01 10:05:47;;;;;;;0.55;0.43;;;;;;;6.77;72.67;95232.66;5013782;28;20561;-75
2021/12/01 10:08:18;;;;;;;1.02;0.68;;;;;;;6.86;71.93;95236.69;5010332;28;20062;-75
2021/12/01 10:10:45;;;;;;;0.30;0.30;;;;;;;6.97;72.54;95214.59;5014146;28;20054;-76
2021/12/01 10:13:13;;;;;;;0.20;0.20;;;;;;;7.09;72.12;95214.88;5013840;28;20522;-75
2021/12/01 10:15:41;;;;;;;0.10;0.10;;;;;;;7.24;72.12;95207.72;5013690;28;20053;-75
2021/12/01 10:18:13;;;;;;;0.32;0.10;;;;;;;7.38;71.36;95201.56;5013416;28;20084;-75
2021/12/01 10:20:57;;;;;;;0.10;0.10;;;;;;;7.47;69.40;95207.38;5012724;28;20496;-75
2021/12/01 10:23:24;;;;;;;1.23;0.25;;;;;;;7.50;70.99;95188.84;5012838;28;20050;-76
2021/12/01 10:25:56;;;;;;;0.90;0.30;;;;;;;7.55;70.17;95196.03;5012921;28;20054;-76
2021/12/01 10:28:35;;;;;;;0.30;0.30;;;;;;;7.55;69.18;95188.25;5013429;28;20050;-75
2021/12/01 10:31:05;;;;;;;0.40;0.20;;;;;;;7.52;69.92;95179.06;5013608;28;20500;-75
2021/12/01 10:33:34;;;;;;;0.85;0.30;;;;;;;7.49;69.69;95173.47;5014601;28;20046;-75
2021/12/01 10:36:04;;;;;;;0.10;0.10;;;;;;;7.46;70.24;95173.88;5013135;28;20050;-76
2021/12/01 10:38:35;;;;;;;0.30;0.30;;;;;;;7.41;69.19;95162.28;5014214;28;20049;-75
2021/12/01 10:41:06;;;;;;;1.10;0.40;;;;;;;7.39;70.81;95148.72;5012859;28;20046;-75
2021/12/01 10:43:39;;;;;;;1.63;0.77;;;;;;;7.37;71.18;95142.13;5012220;28;20522;-76
2021/12/01 10:46:09;;;;;;;5.82;0.85;;;;;;;7.38;70.42;95126.34;5013295;28;20065;-76
2021/12/01 10:48:40;;;;;;;0.73;0.63;;;;;;;7.38;69.91;95125.53;5013627;28;20420;-75
2021/12/01 10:51:10;;;;;;;1.48;0.80;;;;;;;7.41;69.98;95112.16;5013197;28;20054;-75
2021/12/01 10:53:39;;;;;;;0.63;0.43;;;;;;;7.43;70.32;95118.78;5013682;28;20060;-75
2021/12/01 10:56:07;;;;;;;0.55;0.47;;;;;;;7.46;69.78;95111.59;5013739;28;20420;-75
2021/12/01 10:58:37;;;;;;;1.13;0.40;;;;;;;7.46;70.27;95111.59;5015373;28;20081;-75
2021/12/01 11:01:07;;;;;;;0.63;0.50;;;;;;;7.43;70.35;95097.22;5013507;28;20053;-75
2021/12/01 11:03:45;;;;;;;1.15;0.30;;;;;;;7.36;70.60;95096.41;5014802;28;20120;-75
2021/12/01 11:06:19;;;;;;;0.75;0.40;;;;;;;7.30;70.22;95103.19;5014187;28;20054;-75
2021/12/01 11:08:49;;;;;;;0.60;0.30;;;;;;;7.24;70.63;95093.63;5013906;28;20046;-75
2021/12/01 11:11:18;;;;;;;0.60;0.43;;;;;;;7.17;70.80;95095.38;5012564;28;20419;-75
2021/12/01 11:14:09;;;;;;;1.33;0.35;;;;;;;7.12;70.36;95090.78;5013353;28;20042;-75
2021/12/01 11:16:38;;;;;;;0.68;0.50;;;;;;;7.10;71.21;95094.56;5017334;28;20326;-75
2021/12/01 11:19:05;;;;;;;0.60;0.60;;;;;;;7.06;71.70;95088.97;5022021;28;20053;-74
2021/12/01 11:21:34;;;;;;;0.40;0.40;;;;;;;7.03;71.88;95086.00;5022177;28;20057;-75
2021/12/01 11:24:07;;;;;;;4.32;0.80;;;;;;;7.04;71.25;95074.63;5015081;28;20053;-76
2021/12/01 11:26:37;;;;;;;2.58;0.70;;;;;;;7.03;71.50;95070.44;5012503;28;20049;-76
2021/12/01 11:29:21;;;;;;;1.63;0.70;;;;;;;7.00;70.92;95062.06;5013138;28;20050;-76
2021/12/01 11:31:49;;;;;;;3.90;0.98;;;;;;;7.01;71.63;95042.09;5012781;28;20050;-75
2021/12/01 11:34:18;;;;;;;3.53;0.93;;;;;;;7.03;71.95;95049.69;5011985;28;20486;-75
2021/12/01 11:36:51;;;;;;;1.52;0.70;;;;;;;7.02;72.62;95046.31;5012008;28;20046;-75
2021/12/01 11:39:22;;;;;;;3.13;1.20;;;;;;;7.03;73.00;95049.69;5012378;28;20137;-75
2021/12/01 11:41:51;;;;;;;1.25;0.63;;;;;;;7.01;72.31;95032.53;5011547;28;20053;-75
2021/12/01 11:44:20;;;;;;;1.45;0.70;;;;;;;7.04;72.04;95035.72;5011705;28;20056;-75
2021/12/01 11:46:49;;;;;;;1.75;0.90;;;;;;;7.01;71.58;95019.56;5018041;28;20060;-76
2021/12/01 11:49:18;;;;;;;0.82;0.70;;;;;;;7.00;72.24;95028.34;5031559;28;20050;-76
2021/12/01 11:51:51;;;;;;;2.15;1.00;;;;;;;7.01;71.98;95021.38;5032279;28;20507;-75
2021/12/01 11:54:19;;;;;;;;;;;;;;;7.04;72.40;95018.41;5013395;28;20042;-74
2021/12/01 11:56:53;;;;;;;0.93;0.77;;;;;;;7.03;72.45;95013.41;5014702;28;19928;-74